Time;durP1;ratioP1;P1;durP2;ratioP2;P2;SDS_P1;SDS_P2;PMS_P1;PMS_P2;Temp;Humidity;BMP_temperature;BMP_pressure;BME280_temperature;BME280_humidity;BME280_pressure;Samples;Min_cycle;Max_cycle;Signal;HPM_P1;HPM_P2
2023/06/03 00:02:10;;;;;;;1.95;0.60;;;11.90;99.90;;;;;;5095710;28;20103;-81
2023/06/03 00:04:42;;;;;;;3.13;0.80;;;11.90;99.90;;;;;;5060854;28;20036;-81
2023/06/03 00:07:08;;;;;;;1.80;0.50;;;11.80;99.90;;;;;;5061940;28;20025;-81
2023/06/03 00:09:34;;;;;;;1.50;0.63;;;11.80;99.90;;;;;;5094344;28;20031;-81
2023/06/03 00:12:00;;;;;;;4.35;0.70;;;11.80;99.90;;;;;;5050344;28;20033;-80
2023/06/03 00:14:26;;;;;;;1.92;0.50;;;11.80;99.90;;;;;;5080089;28;20103;-80
2023/06/03 00:16:52;;;;;;;2.35;0.65;;;11.70;99.90;;;;;;5063616;28;20037;-79
2023/06/03 00:19:18;;;;;;;1.95;0.60;;;11.80;99.90;;;;;;5053431;28;20033;-81
2023/06/03 00:21:49;;;;;;;2.03;0.52;;;11.70;99.90;;;;;;5066654;28;20040;-80
2023/06/03 00:24:22;;;;;;;1.58;0.90;;;11.80;99.90;;;;;;5084056;28;20899;-80
2023/06/03 00:26:52;;;;;;;2.97;0.70;;;11.80;99.90;;;;;;5066403;28;20047;-81
2023/06/03 00:29:19;;;;;;;1.95;0.63;;;11.80;99.90;;;;;;5064943;28;20040;-80
2023/06/03 00:31:44;;;;;;;2.67;0.65;;;11.80;99.90;;;;;;5069422;28;20024;-80
2023/06/03 00:34:12;;;;;;;1.80;0.70;;;11.80;99.90;;;;;;5050512;28;20039;-81
2023/06/03 00:36:40;;;;;;;4.05;0.70;;;11.80;99.90;;;;;;5064647;28;20052;-80
2023/06/03 00:39:06;;;;;;;2.05;0.70;;;11.70;99.90;;;;;;5068025;28;20412;-81
2023/06/03 00:41:32;;;;;;;1.70;0.63;;;11.80;99.90;;;;;;5068596;28;20098;-81
2023/06/03 00:43:58;;;;;;;2.22;0.65;;;11.80;99.90;;;;;;5067889;28;20032;-81
2023/06/03 00:46:24;;;;;;;3.80;1.10;;;11.80;99.90;;;;;;5065108;28;20115;-80
2023/06/03 00:48:50;;;;;;;3.00;0.60;;;11.90;99.90;;;;;;5069616;28;20037;-80
2023/06/03 00:51:17;;;;;;;3.97;0.95;;;11.90;99.90;;;;;;5081268;28;20051;-81
2023/06/03 00:53:44;;;;;;;1.83;0.80;;;11.80;99.90;;;;;;5068881;28;20165;-81
2023/06/03 00:56:10;;;;;;;3.13;0.90;;;11.80;99.90;;;;;;5053006;28;20052;-80
2023/06/03 00:58:36;;;;;;;2.45;0.90;;;11.90;99.90;;;;;;5070797;28;20029;-81
2023/06/03 01:01:02;;;;;;;2.80;0.80;;;11.90;99.90;;;;;;5048064;28;20056;-81
2023/06/03 01:03:28;;;;;;;2.13;0.60;;;11.80;99.90;;;;;;5065128;28;20020;-81
2023/06/03 01:06:14;;;;;;;3.63;0.90;;;11.80;99.90;;;;;;5082900;28;20024;-80
2023/06/03 01:09:09;;;;;;;3.97;0.80;;;11.70;99.90;;;;;;5065443;28;20021;-81
2023/06/03 01:11:48;;;;;;;1.50;0.77;;;11.70;99.90;;;;;;5052501;28;20032;-81
2023/06/03 01:14:37;;;;;;;2.95;0.95;;;11.80;99.90;;;;;;5049696;28;20036;-80
2023/06/03 01:17:09;;;;;;;2.75;0.77;;;11.80;99.90;;;;;;5069786;28;20032;-80
2023/06/03 01:19:50;;;;;;;2.47;0.50;;;11.80;99.90;;;;;;5067313;28;20046;-81
2023/06/03 01:22:18;;;;;;;3.78;0.80;;;11.80;99.90;;;;;;5066998;28;20056;-80
2023/06/03 01:24:45;;;;;;;3.03;0.68;;;11.80;99.90;;;;;;5055435;28;20020;-81
2023/06/03 01:27:12;;;;;;;5.85;1.08;;;11.80;99.90;;;;;;5071934;28;20541;-82
2023/06/03 01:29:39;;;;;;;2.92;0.60;;;11.80;99.90;;;;;;5070887;28;20035;-81
2023/06/03 01:32:06;;;;;;;2.35;0.70;;;11.80;99.90;;;;;;5069988;28;20091;-80
2023/06/03 01:34:32;;;;;;;1.55;0.52;;;11.80;99.90;;;;;;5085867;28;20024;-81
2023/06/03 01:36:59;;;;;;;2.05;0.60;;;11.70;99.90;;;;;;5068608;28;20024;-82
2023/06/03 01:39:26;;;;;;;1.73;0.77;;;11.70;99.90;;;;;;5069115;28;20078;-81
2023/06/03 01:41:52;;;;;;;1.80;0.52;;;11.70;99.90;;;;;;5070453;28;20037;-80
2023/06/03 01:44:18;;;;;;;3.33;0.50;;;11.60;99.90;;;;;;5072555;28;20027;-81
2023/06/03 01:46:44;;;;;;;1.98;0.70;;;11.60;99.90;;;;;;5070497;28;20024;-81
2023/06/03 01:49:10;;;;;;;1.90;0.50;;;11.60;99.90;;;;;;5068120;28;20083;-81
2023/06/03 01:51:36;;;;;;;1.80;0.70;;;11.60;99.90;;;;;;5045844;28;20029;-81
2023/06/03 01:54:03;;;;;;;1.58;0.50;;;11.50;99.90;;;;;;5049243;28;20491;-81
2023/06/03 01:56:29;;;;;;;1.55;0.60;;;11.60;99.90;;;;;;5068466;28;20028;-80
2023/06/03 01:58:55;;;;;;;2.00;0.70;;;11.50;99.90;;;;;;5049585;28;20020;-81
2023/06/03 02:01:21;;;;;;;1.80;0.60;;;11.50;99.90;;;;;;5066226;28;20549;-80
2023/06/03 02:03:48;;;;;;;2.17;0.40;;;11.40;99.90;;;;;;5032120;28;20155;-81
2023/06/03 02:06:14;;;;;;;1.75;0.50;;;11.40;99.90;;;;;;5029538;28;20127;-81
2023/06/03 02:08:40;;;;;;;2.15;0.60;;;11.40;99.90;;;;;;5048681;28;20044;-81
2023/06/03 02:11:05;;;;;;;1.83;0.68;;;11.30;99.90;;;;;;5047590;28;20056;-82
2023/06/03 02:13:31;;;;;;;2.00;0.60;;;11.30;99.90;;;;;;5046371;28;20134;-81
2023/06/03 02:15:57;;;;;;;2.35;0.60;;;11.20;99.90;;;;;;5028813;28;20112;-81
2023/06/03 02:18:22;;;;;;;2.20;0.50;;;11.20;99.90;;;;;;5045969;28;20033;-82
2023/06/03 02:20:48;;;;;;;1.40;0.50;;;11.10;99.90;;;;;;5027934;28;20037;-81
2023/06/03 02:23:14;;;;;;;1.42;0.50;;;11.10;99.90;;;;;;5046894;28;20052;-80
2023/06/03 02:25:40;;;;;;;1.30;0.50;;;11.10;99.90;;;;;;5028067;28;20039;-80
2023/06/03 02:28:07;;;;;;;1.05;0.40;;;11.00;99.90;;;;;;5029107;28;20029;-81
2023/06/03 02:30:33;;;;;;;1.00;0.40;;;11.00;99.90;;;;;;5040298;28;20044;-80
2023/06/03 02:32:59;;;;;;;2.20;1.05;;;10.90;99.90;;;;;;5068023;28;20025;-81
2023/06/03 02:35:24;;;;;;;3.70;0.50;;;10.90;99.90;;;;;;5047359;28;20103;-81
2023/06/03 02:37:50;;;;;;;2.65;0.60;;;10.90;99.90;;;;;;5050383;28;20485;-81
2023/06/03 02:40:16;;;;;;;1.65;0.50;;;10.80;99.90;;;;;;5046876;28;20025;-81
2023/06/03 02:42:42;;;;;;;2.65;0.60;;;10.80;99.90;;;;;;5047455;28;20039;-80
2023/06/03 02:45:09;;;;;;;1.25;0.50;;;10.80;99.90;;;;;;5050631;28;20047;-81
2023/06/03 02:47:35;;;;;;;2.63;0.50;;;10.70;99.90;;;;;;5066140;28;20040;-81
2023/06/03 02:50:01;;;;;;;1.45;0.47;;;10.70;99.90;;;;;;5063590;28;20451;-80
2023/06/03 02:52:28;;;;;;;1.80;0.50;;;10.70;99.90;;;;;;5045265;28;20036;-80
2023/06/03 02:54:54;;;;;;;1.65;0.40;;;10.70;99.90;;;;;;5065124;28;20017;-80
2023/06/03 02:57:20;;;;;;;1.33;0.47;;;10.70;99.90;;;;;;5051980;28;20465;-80
2023/06/03 02:59:46;;;;;;;1.20;0.40;;;10.70;99.90;;;;;;5050792;28;20476;-81
2023/06/03 03:02:12;;;;;;;2.33;0.40;;;10.70;99.90;;;;;;5062270;28;20037;-80
2023/06/03 03:04:38;;;;;;;2.88;0.55;;;10.60;99.90;;;;;;5063655;28;20029;-81
2023/06/03 03:07:08;;;;;;;1.58;0.40;;;10.70;99.90;;;;;;5047311;28;20106;-81
2023/06/03 03:09:34;;;;;;;1.25;0.30;;;10.60;99.90;;;;;;5062524;28;20028;-81
2023/06/03 03:12:01;;;;;;;1.92;0.47;;;10.50;99.90;;;;;;5046959;28;20020;-81
2023/06/03 03:14:27;;;;;;;2.00;0.60;;;10.50;99.90;;;;;;5047676;28;20552;-79
2023/06/03 03:16:53;;;;;;;3.40;0.50;;;10.50;99.90;;;;;;5050734;28;20020;-81
2023/06/03 03:19:20;;;;;;;0.98;0.40;;;10.50;99.90;;;;;;5050627;28;20034;-81
2023/06/03 03:21:46;;;;;;;1.33;0.30;;;10.50;99.90;;;;;;5067659;28;20468;-81
2023/06/03 03:24:22;;;;;;;1.33;0.30;;;10.40;99.90;;;;;;5062893;28;20020;-80
2023/06/03 03:26:47;;;;;;;2.50;0.50;;;10.40;99.90;;;;;;5050660;28;20559;-82
2023/06/03 03:29:13;;;;;;;2.20;0.55;;;10.30;99.90;;;;;;5065929;28;20029;-81
2023/06/03 03:31:39;;;;;;;2.92;0.60;;;10.30;99.90;;;;;;5049911;28;20035;-80
2023/06/03 03:34:07;;;;;;;1.30;0.40;;;10.30;99.90;;;;;;5064823;28;20820;-81
2023/06/03 03:36:36;;;;;;;1.10;0.30;;;10.30;99.90;;;;;;5049193;28;20025;-81
2023/06/03 03:39:06;;;;;;;1.50;0.43;;;10.20;99.90;;;;;;5050195;28;20047;-81
2023/06/03 03:41:42;;;;;;;2.05;0.47;;;10.10;99.90;;;;;;5050043;28;20028;-80
2023/06/03 03:44:08;;;;;;;1.40;0.50;;;10.10;99.90;;;;;;5046340;28;20078;-80
2023/06/03 03:46:35;;;;;;;2.40;0.50;;;10.10;99.90;;;;;;5049654;28;20028;-81
2023/06/03 03:49:03;;;;;;;1.23;0.45;;;10.20;99.90;;;;;;5059514;28;20024;-80
2023/06/03 03:51:32;;;;;;;3.47;0.40;;;10.20;99.90;;;;;;5064142;28;20028;-80
2023/06/03 03:53:57;;;;;;;0.95;0.30;;;10.30;99.90;;;;;;5061597;28;20024;-81
2023/06/03 03:56:28;;;;;;;1.10;0.30;;;10.20;99.90;;;;;;5064016;28;20036;-80
2023/06/03 03:58:58;;;;;;;1.42;0.30;;;10.20;99.90;;;;;;5060001;28;20385;-80
2023/06/03 04:01:29;;;;;;;0.75;0.30;;;10.20;99.90;;;;;;5062302;28;20064;-80
2023/06/03 04:04:06;;;;;;;1.20;0.30;;;10.20;99.90;;;;;;5048614;28;20041;-80
2023/06/03 04:06:37;;;;;;;0.73;0.30;;;10.20;99.90;;;;;;5044964;28;20024;-81
2023/06/03 04:09:06;;;;;;;0.93;0.32;;;10.20;99.90;;;;;;5063832;28;20134;-82
2023/06/03 04:11:39;;;;;;;1.13;0.30;;;10.20;99.90;;;;;;5045433;28;20055;-80
2023/06/03 04:14:10;;;;;;;1.23;0.30;;;10.20;99.90;;;;;;5065729;28;20028;-80
2023/06/03 04:16:53;;;;;;;0.93;0.30;;;10.20;99.90;;;;;;5063369;28;20052;-81
2023/06/03 04:19:32;;;;;;;1.85;0.30;;;10.30;99.90;;;;;;5063072;28;20032;-81
2023/06/03 04:22:00;;;;;;;0.90;0.30;;;10.40;99.90;;;;;;5059385;28;20127;-81
2023/06/03 04:24:27;;;;;;;1.30;0.30;;;10.50;99.90;;;;;;5060781;28;20037;-80
2023/06/03 04:26:53;;;;;;;1.58;0.43;;;10.50;99.90;;;;;;5048368;28;20443;-80
2023/06/03 04:29:19;;;;;;;2.70;0.30;;;10.50;99.90;;;;;;5063611;28;20558;-81
2023/06/03 04:31:45;;;;;;;1.05;0.30;;;10.60;99.90;;;;;;5060407;28;20029;-81
2023/06/03 04:34:12;;;;;;;0.95;0.30;;;10.70;99.90;;;;;;5064521;28;20052;-80
2023/06/03 04:36:38;;;;;;;1.00;0.30;;;10.90;99.90;;;;;;5061602;28;20064;-81
2023/06/03 04:39:08;;;;;;;1.40;0.30;;;11.00;99.90;;;;;;5063214;28;20020;-81
2023/06/03 04:41:37;;;;;;;1.63;0.50;;;11.10;99.90;;;;;;5062336;28;20068;-81
2023/06/03 04:44:08;;;;;;;0.90;0.30;;;11.20;99.90;;;;;;5060834;28;20028;-82
2023/06/03 04:46:35;;;;;;;1.73;0.30;;;11.40;99.90;;;;;;5059325;28;20397;-81
2023/06/03 04:49:01;;;;;;;1.00;0.38;;;11.50;99.90;;;;;;5044086;28;20408;-81
2023/06/03 04:51:33;;;;;;;1.08;0.20;;;11.70;99.90;;;;;;5044654;28;20029;-81
2023/06/03 04:54:00;;;;;;;0.98;0.20;;;11.80;99.90;;;;;;5044093;28;20020;-81
2023/06/03 04:56:29;;;;;;;0.90;0.20;;;12.00;99.90;;;;;;5047875;28;20056;-82
2023/06/03 04:58:57;;;;;;;1.55;0.30;;;12.00;99.90;;;;;;5045555;28;20048;-82
2023/06/03 05:01:27;;;;;;;1.05;0.32;;;12.20;99.90;;;;;;5047179;28;20040;-82
2023/06/03 05:03:55;;;;;;;1.15;0.22;;;12.20;99.90;;;;;;5062296;28;20028;-81
2023/06/03 05:06:23;;;;;;;2.65;0.30;;;12.30;99.90;;;;;;5052057;28;20047;-81
2023/06/03 05:08:50;;;;;;;0.90;0.25;;;12.60;99.90;;;;;;5048821;28;20025;-81
2023/06/03 05:11:17;;;;;;;1.13;0.30;;;12.70;99.90;;;;;;5067339;28;20024;-82
2023/06/03 05:13:44;;;;;;;0.77;0.20;;;12.80;99.90;;;;;;5048433;28;20050;-82
2023/06/03 05:16:11;;;;;;;0.90;0.30;;;12.90;99.90;;;;;;5052224;28;20028;-82
2023/06/03 05:18:38;;;;;;;2.15;0.20;;;13.00;99.90;;;;;;5051124;28;20384;-82
2023/06/03 05:21:05;;;;;;;1.08;0.20;;;13.00;99.90;;;;;;5050217;28;20040;-83
2023/06/03 05:23:30;;;;;;;1.05;0.20;;;13.00;99.90;;;;;;5047880;28;20021;-82
2023/06/03 05:25:56;;;;;;;1.10;0.30;;;13.10;99.90;;;;;;5069191;28;20102;-82
2023/06/03 05:28:25;;;;;;;1.40;0.20;;;13.20;99.90;;;;;;5067167;28;20025;-83
2023/06/03 05:30:51;;;;;;;1.13;0.28;;;13.30;99.90;;;;;;5043913;28;20056;-82
2023/06/03 05:33:28;;;;;;;1.75;0.20;;;13.30;99.90;;;;;;5052173;28;20029;-81
2023/06/03 05:35:59;;;;;;;1.00;0.20;;;13.50;99.90;;;;;;5049257;28;20075;-81
2023/06/03 05:38:27;;;;;;;1.02;0.20;;;13.60;99.90;;;;;;5085029;28;20025;-80
2023/06/03 05:40:53;;;;;;;0.95;0.20;;;13.70;99.90;;;;;;5049572;28;20158;-82
2023/06/03 05:43:20;;;;;;;1.73;0.20;;;13.80;99.90;;;;;;5050764;28;20028;-82
2023/06/03 05:45:47;;;;;;;0.47;0.20;;;13.90;99.90;;;;;;5046881;28;20127;-82
2023/06/03 05:48:13;;;;;;;0.80;0.20;;;14.00;99.90;;;;;;5048718;28;20032;-81
2023/06/03 05:50:49;;;;;;;1.52;0.20;;;14.10;99.90;;;;;;5050400;28;20021;-83
2023/06/03 05:53:19;;;;;;;0.60;0.10;;;14.30;99.90;;;;;;5060186;28;20024;-81
2023/06/03 05:55:44;;;;;;;0.93;0.20;;;14.50;99.90;;;;;;5044211;28;20025;-82
2023/06/03 05:58:10;;;;;;;0.90;0.20;;;14.60;99.90;;;;;;5064243;28;20044;-80
2023/06/03 06:00:36;;;;;;;0.47;0.10;;;14.70;99.90;;;;;;5049591;28;20046;-82
2023/06/03 06:03:02;;;;;;;0.50;0.20;;;14.90;99.90;;;;;;5063947;28;20434;-81
2023/06/03 06:05:27;;;;;;;0.95;0.20;;;15.00;99.90;;;;;;5067840;28;20082;-82
2023/06/03 06:07:53;;;;;;;1.30;0.20;;;15.10;99.90;;;;;;5046940;28;20024;-82
2023/06/03 06:10:19;;;;;;;1.90;0.25;;;15.20;99.90;;;;;;5047155;28;20136;-82
2023/06/03 06:12:45;;;;;;;0.60;0.20;;;15.30;99.90;;;;;;5065380;28;20028;-81
2023/06/03 06:15:13;;;;;;;0.80;0.20;;;15.30;99.90;;;;;;5048788;28;20034;-82
2023/06/03 06:17:39;;;;;;;1.20;0.55;;;15.60;99.90;;;;;;5051386;28;20480;-83
2023/06/03 06:20:06;;;;;;;0.80;0.20;;;15.70;99.90;;;;;;5065201;28;20408;-84
2023/06/03 06:22:33;;;;;;;1.13;0.20;;;15.80;99.90;;;;;;5067339;28;20036;-84
2023/06/03 06:24:59;;;;;;;0.63;0.20;;;15.90;99.90;;;;;;5047241;28;20381;-83
2023/06/03 06:27:25;;;;;;;0.82;0.20;;;16.10;99.90;;;;;;5048981;28;20032;-84
2023/06/03 06:29:54;;;;;;;1.95;0.20;;;16.00;99.90;;;;;;5066017;28;20542;-83
2023/06/03 06:32:25;;;;;;;1.15;0.20;;;16.10;99.90;;;;;;5049013;28;20047;-83
2023/06/03 06:34:52;;;;;;;0.80;0.20;;;16.30;99.90;;;;;;5047058;28;20025;-83
2023/06/03 06:37:19;;;;;;;0.63;0.20;;;16.40;99.90;;;;;;5079959;28;20060;-82
2023/06/03 06:39:47;;;;;;;0.60;0.20;;;16.60;99.90;;;;;;5050406;28;20028;-84
2023/06/03 06:42:33;;;;;;;0.55;0.15;;;16.70;99.90;;;;;;5048192;28;20056;-83
2023/06/03 06:46:01;;;;;;;0.65;0.10;;;16.90;99.90;;;;;;5054212;28;20016;-83
2023/06/03 06:48:38;;;;;;;0.38;0.10;;;16.90;99.90;;;;;;5092594;28;20091;-84
2023/06/03 06:51:06;;;;;;;0.50;0.20;;;17.20;99.90;;;;;;5046995;28;20393;-83
2023/06/03 06:53:35;;;;;;;1.90;0.20;;;17.40;99.90;;;;;;5047256;28;20382;-84
2023/06/03 06:56:11;;;;;;;1.10;0.10;;;17.50;99.90;;;;;;5050563;28;20127;-83
2023/06/03 06:58:55;;;;;;;1.25;0.10;;;17.40;99.90;;;;;;5066459;28;20115;-82
2023/06/03 07:01:21;;;;;;;0.80;0.15;;;17.40;99.90;;;;;;5048639;28;20428;-83
2023/06/03 07:03:50;;;;;;;0.43;0.10;;;17.50;99.90;;;;;;5050693;28;20021;-82
2023/06/03 07:06:16;;;;;;;0.63;0.13;;;17.70;99.90;;;;;;5063954;28;20025;-83
2023/06/03 07:08:43;;;;;;;0.70;0.20;;;17.70;99.90;;;;;;5063266;28;20117;-82
2023/06/03 07:11:09;;;;;;;1.55;0.20;;;17.90;99.90;;;;;;5095545;28;20056;-82
2023/06/03 07:13:45;;;;;;;1.27;0.20;;;17.80;99.90;;;;;;5063785;28;20028;-82
2023/06/03 07:16:15;;;;;;;0.63;0.10;;;17.80;99.90;;;;;;5046716;28;20119;-83
2023/06/03 07:18:41;;;;;;;0.50;0.10;;;18.00;99.90;;;;;;5092582;28;20029;-84
2023/06/03 07:21:06;;;;;;;1.23;0.20;;;18.30;99.90;;;;;;5048269;28;20037;-82
2023/06/03 07:23:33;;;;;;;1.88;0.13;;;18.10;99.90;;;;;;5064129;28;20025;-82
2023/06/03 07:25:59;;;;;;;0.88;0.32;;;18.30;99.90;;;;;;5043659;28;20026;-83
2023/06/03 07:28:30;;;;;;;0.50;0.17;;;18.70;99.90;;;;;;5050087;28;20029;-81
2023/06/03 07:31:03;;;;;;;0.85;0.10;;;18.80;99.90;;;;;;5079236;28;20029;-83
2023/06/03 07:33:34;;;;;;;0.80;0.20;;;18.80;99.90;;;;;;5047638;28;20359;-83
2023/06/03 07:36:03;;;;;;;0.52;0.05;;;19.00;99.90;;;;;;5062534;28;20410;-82
2023/06/03 07:39:02;;;;;;;0.70;0.13;;;19.00;99.90;;;;;;5059918;28;20063;-82
2023/06/03 07:41:36;;;;;;;1.45;0.10;;;19.40;99.90;;;;;;5079278;28;20435;-82
2023/06/03 07:44:14;;;;;;;1.40;0.10;;;19.40;99.90;;;;;;5046875;28;20025;-82
2023/06/03 07:46:45;;;;;;;0.43;0.10;;;19.50;99.90;;;;;;5060913;28;20093;-81
2023/06/03 07:49:16;;;;;;;0.85;0.10;;;19.70;99.90;;;;;;5060498;28;21449;-82
2023/06/03 07:51:46;;;;;;;1.15;0.20;;;19.70;99.90;;;;;;5046851;28;20036;-84
2023/06/03 07:54:13;;;;;;;0.85;0.10;;;19.60;99.90;;;;;;5047410;28;20435;-84
2023/06/03 07:56:39;;;;;;;1.80;0.20;;;19.90;99.90;;;;;;5048197;28;20587;-83
2023/06/03 07:59:08;;;;;;;0.85;0.13;;;19.90;99.90;;;;;;5058857;28;20055;-85
2023/06/03 08:01:35;;;;;;;0.95;0.20;;;20.00;99.90;;;;;;5065967;28;20067;-87
2023/06/03 08:04:05;;;;;;;0.40;0.10;;;20.00;99.90;;;;;;5079424;28;20498;-83
2023/06/03 08:06:32;;;;;;;1.20;0.13;;;20.20;99.90;;;;;;5040070;28;20029;-83
2023/06/03 08:09:00;;;;;;;0.50;0.10;;;20.30;99.90;;;;;;5065559;28;20136;-83
2023/06/03 08:11:26;;;;;;;0.57;0.10;;;20.10;99.80;;;;;;5065274;28;20024;-83
2023/06/03 08:13:55;;;;;;;0.65;0.10;;;20.40;99.90;;;;;;5048310;28;20074;-84
2023/06/03 08:16:21;;;;;;;0.85;0.10;;;20.30;98.90;;;;;;5048706;28;20192;-83
2023/06/03 08:18:50;;;;;;;0.63;0.10;;;20.30;99.60;;;;;;5049985;28;20551;-83
2023/06/03 08:21:17;;;;;;;0.40;0.10;;;20.60;97.90;;;;;;5046677;28;20032;-84
2023/06/03 08:23:43;;;;;;;2.63;0.10;;;20.70;99.10;;;;;;5063855;28;20033;-83
2023/06/03 08:26:10;;;;;;;0.80;0.10;;;20.70;98.60;;;;;;5062411;28;20462;-83
2023/06/03 08:28:40;;;;;;;0.30;0.10;;;20.70;96.90;;;;;;5047778;28;20124;-83
2023/06/03 08:31:06;;;;;;;0.95;0.10;;;20.80;97.50;;;;;;5071750;28;20057;-82
2023/06/03 08:33:32;;;;;;;0.50;0.10;;;20.60;97.30;;;;;;5065277;28;20072;-83
2023/06/03 08:35:58;;;;;;;0.57;0.10;;;20.90;97.80;;;;;;5050808;28;20094;-83
2023/06/03 08:38:23;;;;;;;0.30;0.00;;;20.90;97.40;;;;;;5049452;28;20029;-84
2023/06/03 08:40:50;;;;;;;0.45;0.10;;;21.00;97.10;;;;;;5049263;28;20041;-82
2023/06/03 08:43:20;;;;;;;0.73;0.03;;;21.00;96.40;;;;;;5057711;28;20021;-82
2023/06/03 08:45:55;;;;;;;1.00;0.10;;;21.00;96.50;;;;;;5046905;28;20031;-82
2023/06/03 08:48:37;;;;;;;1.33;0.10;;;21.10;96.20;;;;;;5064384;28;20111;-82
2023/06/03 08:51:04;;;;;;;1.38;0.10;;;21.10;96.40;;;;;;5066248;28;20144;-82
2023/06/03 08:53:45;;;;;;;1.40;0.10;;;21.20;95.30;;;;;;5068078;28;20024;-83
2023/06/03 08:56:15;;;;;;;0.25;0.00;;;21.00;96.20;;;;;;5047679;28;20024;-83
2023/06/03 08:58:43;;;;;;;0.70;0.00;;;21.30;95.90;;;;;;5048597;28;20416;-83
2023/06/03 09:01:11;;;;;;;0.63;0.05;;;21.10;95.60;;;;;;5047017;28;20037;-83
2023/06/03 09:03:38;;;;;;;0.40;0.10;;;21.30;95.90;;;;;;5061562;28;20024;-82
2023/06/03 09:06:05;;;;;;;0.30;0.10;;;21.20;95.20;;;;;;5060089;28;20048;-82
2023/06/03 09:08:32;;;;;;;0.98;0.10;;;21.50;94.60;;;;;;5068767;28;20033;-83
2023/06/03 09:10:59;;;;;;;0.73;0.10;;;21.50;93.70;;;;;;5050663;28;20428;-82
2023/06/03 09:13:28;;;;;;;0.35;0.00;;;21.20;94.10;;;;;;5052230;28;20094;-84
2023/06/03 09:15:55;;;;;;;0.57;0.00;;;21.30;94.70;;;;;;5048405;28;20418;-83
2023/06/03 09:18:21;;;;;;;0.17;0.00;;;21.90;95.50;;;;;;5052017;28;20033;-82
2023/06/03 09:20:46;;;;;;;0.20;0.00;;;22.10;94.20;;;;;;5046857;28;20065;-83
2023/06/03 09:23:12;;;;;;;0.30;0.10;;;22.00;93.60;;;;;;5064432;28;20095;-83
2023/06/03 09:25:38;;;;;;;0.30;0.00;;;22.00;92.90;;;;;;5051459;28;20568;-82
2023/06/03 09:28:04;;;;;;;0.35;0.03;;;21.80;93.00;;;;;;5045548;28;20603;-82
2023/06/03 09:30:33;;;;;;;0.30;0.00;;;21.70;92.70;;;;;;5051081;28;20029;-82
2023/06/03 09:32:59;;;;;;;0.43;0.10;;;21.70;92.70;;;;;;5049324;28;20074;-82
2023/06/03 09:35:25;;;;;;;0.40;0.10;;;21.40;92.10;;;;;;5064312;28;20538;-81
2023/06/03 09:38:04;;;;;;;0.50;0.10;;;21.80;92.60;;;;;;5065024;28;20028;-82
2023/06/03 09:40:31;;;;;;;0.38;0.00;;;21.60;92.00;;;;;;5056028;28;20056;-82
2023/06/03 09:42:57;;;;;;;0.47;0.00;;;21.50;91.90;;;;;;5058689;28;20123;-82
2023/06/03 09:45:30;;;;;;;1.67;0.10;;;21.60;91.80;;;;;;5077547;28;20025;-82
2023/06/03 09:48:00;;;;;;;0.30;0.00;;;21.70;92.10;;;;;;5066776;28;20500;-82
2023/06/03 09:50:31;;;;;;;0.80;0.10;;;22.10;92.00;;;;;;5059402;28;20095;-82
2023/06/03 09:52:58;;;;;;;0.70;0.10;;;22.10;91.70;;;;;;5058182;28;20393;-82
2023/06/03 09:55:32;;;;;;;0.30;0.10;;;22.30;91.90;;;;;;5045613;28;20460;-82
2023/06/03 09:58:05;;;;;;;1.20;0.05;;;22.10;92.40;;;;;;5044272;28;20032;-82
2023/06/03 10:00:45;;;;;;;0.20;0.00;;;22.10;91.70;;;;;;5061370;28;20032;-82
2023/06/03 10:03:10;;;;;;;0.30;0.00;;;22.30;90.80;;;;;;5045382;28;20048;-82
2023/06/03 10:05:36;;;;;;;0.40;0.03;;;21.90;90.40;;;;;;5057036;28;20024;-82
2023/06/03 10:08:03;;;;;;;0.40;0.08;;;22.00;90.40;;;;;;5058255;28;20032;-81
2023/06/03 10:10:30;;;;;;;0.20;0.00;;;22.10;90.70;;;;;;5061716;28;20041;-82
2023/06/03 10:12:56;;;;;;;0.20;0.10;;;22.40;91.60;;;;;;5047063;28;20101;-82
2023/06/03 10:15:39;;;;;;;0.30;0.05;;;22.40;90.30;;;;;;5066186;28;20468;-82
2023/06/03 10:18:06;;;;;;;0.43;0.10;;;22.60;89.80;;;;;;5041651;28;20021;-82
2023/06/03 10:20:40;;;;;;;0.40;0.00;;;22.60;91.70;;;;;;5059959;28;20039;-82
2023/06/03 10:23:08;;;;;;;0.60;0.00;;;23.10;90.90;;;;;;5062708;28;20040;-83
2023/06/03 10:25:45;;;;;;;0.45;0.10;;;22.90;90.00;;;;;;5046560;28;20048;-84
2023/06/03 10:28:12;;;;;;;0.88;0.10;;;22.80;89.90;;;;;;5057705;28;20037;-85
2023/06/03 10:30:42;;;;;;;0.17;0.00;;;22.80;89.90;;;;;;5059831;28;20355;-82
2023/06/03 10:33:08;;;;;;;0.63;0.10;;;22.80;90.30;;;;;;5062446;28;20039;-83
2023/06/03 10:35:38;;;;;;;0.88;0.00;;;22.80;90.80;;;;;;5047946;28;20078;-84
2023/06/03 10:38:05;;;;;;;;;;;23.00;90.50;;;;;;5075697;28;20120;-84
2023/06/03 10:40:31;;;;;;;0.30;0.00;;;23.10;88.80;;;;;;5075227;28;19912;-84
2023/06/03 10:42:57;;;;;;;0.25;0.00;;;23.20;90.50;;;;;;5075989;28;20522;-82
2023/06/03 10:45:24;;;;;;;0.40;0.10;;;23.20;88.70;;;;;;5048219;28;20057;-84
2023/06/03 10:47:56;;;;;;;0.82;0.00;;;23.30;89.20;;;;;;5044267;28;20056;-83
2023/06/03 10:50:40;;;;;;;0.30;0.10;;;23.60;90.00;;;;;;5061993;28;20303;-84
2023/06/03 10:53:28;;;;;;;0.30;0.10;;;23.60;90.30;;;;;;5076170;28;20025;-84
2023/06/03 10:56:13;;;;;;;0.38;0.00;;;23.30;89.50;;;;;;5058425;28;20029;-83
2023/06/03 10:58:42;;;;;;;1.42;0.10;;;23.20;86.90;;;;;;5044315;28;20484;-84
2023/06/03 11:01:08;;;;;;;0.73;0.10;;;22.80;88.10;;;;;;5041529;28;20036;-86
2023/06/03 11:03:57;;;;;;;2.00;0.05;;;23.00;87.90;;;;;;5058619;28;20386;-83
2023/06/03 11:06:25;;;;;;;0.93;0.10;;;23.10;88.30;;;;;;5062067;28;20027;-84
2023/06/03 11:09:02;;;;;;;0.43;0.10;;;23.10;88.40;;;;;;5057264;28;20058;-83
2023/06/03 11:11:52;;;;;;;0.20;0.00;;;23.20;87.80;;;;;;5057500;28;20086;-84
2023/06/03 11:14:56;;;;;;;0.90;0.00;;;23.40;88.10;;;;;;5060582;28;20033;-85
2023/06/03 11:17:22;;;;;;;0.25;0.00;;;23.60;88.70;;;;;;5082796;28;20032;-86
2023/06/03 11:19:50;;;;;;;0.40;0.08;;;23.50;88.00;;;;;;5062170;28;20162;-85
2023/06/03 11:22:28;;;;;;;0.20;0.00;;;23.70;88.90;;;;;;5048678;28;20040;-86
2023/06/03 11:24:58;;;;;;;0.20;0.00;;;23.70;87.40;;;;;;5044902;28;20378;-85
2023/06/03 11:27:27;;;;;;;;;;;23.50;87.40;;;;;;5064247;28;20032;-83
2023/06/03 11:29:59;;;;;;;0.20;0.00;;;23.50;87.10;;;;;;5066554;28;20369;-84
2023/06/03 11:32:30;;;;;;;1.58;0.00;;;23.80;87.00;;;;;;5041243;28;20053;-85
2023/06/03 11:34:59;;;;;;;0.40;0.10;;;23.90;89.10;;;;;;5045859;28;20028;-84
2023/06/03 11:37:43;;;;;;;0.47;0.00;;;23.60;87.30;;;;;;5061175;28;20473;-87
2023/06/03 11:40:17;;;;;;;1.55;0.10;;;23.60;85.60;;;;;;5049337;28;20039;-82
2023/06/03 11:42:49;;;;;;;0.63;0.08;;;23.50;85.10;;;;;;5080401;28;20033;-85
2023/06/03 11:45:29;;;;;;;0.60;0.08;;;23.60;87.20;;;;;;5065186;28;20032;-83
2023/06/03 11:48:05;;;;;;;0.40;0.00;;;23.80;86.60;;;;;;5062951;28;20024;-83
2023/06/03 11:50:46;;;;;;;1.15;0.00;;;23.70;85.10;;;;;;5045280;28;20330;-86
2023/06/03 11:53:31;;;;;;;1.33;0.20;;;23.60;86.60;;;;;;5059256;28;20029;-87
2023/06/03 11:56:12;;;;;;;0.93;0.10;;;22.90;86.10;;;;;;5051363;28;20021;-85
2023/06/03 11:58:40;;;;;;;1.17;0.10;;;23.00;87.00;;;;;;5075836;28;20024;-85
2023/06/03 12:01:17;;;;;;;0.10;0.00;;;23.30;86.50;;;;;;5066107;28;20044;-85
2023/06/03 12:04:00;;;;;;;0.55;0.00;;;23.60;86.30;;;;;;5061373;28;20041;-85
2023/06/03 12:06:32;;;;;;;0.82;0.03;;;23.40;84.20;;;;;;5048996;28;20028;-84
2023/06/03 12:08:57;;;;;;;0.00;0.00;;;23.30;84.10;;;;;;5057884;28;20033;-86
2023/06/03 12:11:40;;;;;;;0.30;0.00;;;23.50;83.60;;;;;;5048886;28;20110;-85
2023/06/03 12:14:08;;;;;;;1.08;0.10;;;23.50;82.40;;;;;;5063381;28;20078;-84
2023/06/03 12:16:35;;;;;;;1.10;0.10;;;23.50;83.30;;;;;;5064724;28;20477;-85
2023/06/03 12:19:03;;;;;;;0.32;0.10;;;23.60;83.60;;;;;;5059354;28;20076;-84
2023/06/03 12:21:33;;;;;;;1.17;0.10;;;23.30;83.70;;;;;;5065671;28;20088;-84
2023/06/03 12:23:58;;;;;;;0.43;0.10;;;23.40;83.20;;;;;;5045070;28;20405;-85
2023/06/03 12:26:25;;;;;;;0.43;0.10;;;23.30;83.60;;;;;;5064411;28;20036;-85
2023/06/03 12:29:04;;;;;;;0.30;0.10;;;23.20;84.60;;;;;;5064956;28;20465;-85
2023/06/03 12:31:29;;;;;;;2.05;0.10;;;23.40;85.10;;;;;;5076081;28;20106;-83
2023/06/03 12:33:55;;;;;;;0.28;0.05;;;23.30;82.60;;;;;;5043756;28;20029;-87
2023/06/03 12:36:22;;;;;;;0.68;0.10;;;23.20;82.50;;;;;;5051097;28;20055;-85
2023/06/03 12:38:59;;;;;;;1.13;0.00;;;23.10;83.40;;;;;;5049489;28;20025;-85
2023/06/03 12:41:27;;;;;;;1.75;0.00;;;23.20;83.00;;;;;;5062883;28;20040;-83
2023/06/03 12:44:03;;;;;;;0.60;0.08;;;23.10;82.30;;;;;;5063701;28;20029;-83
2023/06/03 12:46:30;;;;;;;0.30;0.10;;;23.50;82.20;;;;;;5045541;28;20028;-83
2023/06/03 12:48:56;;;;;;;0.40;0.00;;;23.50;84.20;;;;;;5067519;28;20036;-84
2023/06/03 12:51:30;;;;;;;1.30;0.03;;;23.30;82.20;;;;;;5047556;28;20021;-82
2023/06/03 12:53:57;;;;;;;0.22;0.03;;;23.50;83.00;;;;;;5060925;28;20493;-85
2023/06/03 12:56:27;;;;;;;0.30;0.00;;;23.50;83.40;;;;;;5046886;28;20159;-83
2023/06/03 12:58:56;;;;;;;0.32;0.00;;;23.70;82.70;;;;;;5046675;28;20080;-83
2023/06/03 13:01:23;;;;;;;0.38;0.10;;;23.50;83.00;;;;;;5058879;28;20037;-84